sensor_id;sensor_type;location;lat;lon;timestamp;P1;durP1;ratioP1;P2;durP2;ratioP2
39044;SDS011;52192;52.002;5.956;2023-07-13T00:01:30;0.77;;;0.75;;
39044;SDS011;52192;52.002;5.956;2023-07-13T00:03:57;1.38;;;0.77;;
39044;SDS011;52192;52.002;5.956;2023-07-13T00:06:23;1.50;;;0.82;;
39044;SDS011;52192;52.002;5.956;2023-07-13T00:08:49;4.03;;;0.70;;
39044;SDS011;52192;52.002;5.956;2023-07-13T00:11:15;1.55;;;0.82;;
39044;SDS011;52192;52.002;5.956;2023-07-13T00:13:42;0.98;;;0.68;;
39044;SDS011;52192;52.002;5.956;2023-07-13T00:16:09;1.90;;;1.10;;
39044;SDS011;52192;52.002;5.956;2023-07-13T00:18:36;5.05;;;0.40;;
39044;SDS011;52192;52.002;5.956;2023-07-13T00:21:03;1.50;;;0.85;;
39044;SDS011;52192;52.002;5.956;2023-07-13T00:23:35;2.40;;;0.82;;
39044;SDS011;52192;52.002;5.956;2023-07-13T00:26:03;0.50;;;0.50;;
39044;SDS011;52192;52.002;5.956;2023-07-13T00:28:30;1.92;;;0.60;;
39044;SDS011;52192;52.002;5.956;2023-07-13T00:30:57;4.35;;;1.00;;
39044;SDS011;52192;52.002;5.956;2023-07-13T00:33:23;3.40;;;1.15;;
39044;SDS011;52192;52.002;5.956;2023-07-13T00:35:49;3.05;;;0.88;;
39044;SDS011;52192;52.002;5.956;2023-07-13T00:38:15;1.23;;;0.60;;
39044;SDS011;52192;52.002;5.956;2023-07-13T00:40:41;2.90;;;1.10;;
39044;SDS011;52192;52.002;5.956;2023-07-13T00:43:09;0.52;;;0.52;;
39044;SDS011;52192;52.002;5.956;2023-07-13T00:48:33;1.40;;;0.82;;
39044;SDS011;52192;52.002;5.956;2023-07-13T00:51:00;0.65;;;0.45;;
39044;SDS011;52192;52.002;5.956;2023-07-13T00:53:27;1.95;;;0.40;;
39044;SDS011;52192;52.002;5.956;2023-07-13T00:55:56;2.85;;;0.55;;
39044;SDS011;52192;52.002;5.956;2023-07-13T00:58:24;2.47;;;0.85;;
39044;SDS011;52192;52.002;5.956;2023-07-13T01:00:51;2.13;;;0.60;;
39044;SDS011;52192;52.002;5.956;2023-07-13T01:03:17;1.05;;;0.90;;
39044;SDS011;52192;52.002;5.956;2023-07-13T01:05:44;2.40;;;0.70;;
39044;SDS011;52192;52.002;5.956;2023-07-13T01:08:13;2.03;;;0.70;;
39044;SDS011;52192;52.002;5.956;2023-07-13T01:10:39;3.13;;;0.63;;
39044;SDS011;52192;52.002;5.956;2023-07-13T01:13:05;1.27;;;0.40;;
39044;SDS011;52192;52.002;5.956;2023-07-13T01:15:34;0.43;;;0.40;;
39044;SDS011;52192;52.002;5.956;2023-07-13T01:18:03;0.73;;;0.43;;
39044;SDS011;52192;52.002;5.956;2023-07-13T01:20:31;0.90;;;0.50;;
39044;SDS011;52192;52.002;5.956;2023-07-13T01:23:03;0.93;;;0.60;;
39044;SDS011;52192;52.002;5.956;2023-07-13T01:25:33;1.40;;;0.30;;
39044;SDS011;52192;52.002;5.956;2023-07-13T01:28:01;1.27;;;1.02;;
39044;SDS011;52192;52.002;5.956;2023-07-13T01:30:28;0.77;;;0.52;;
39044;SDS011;52192;52.002;5.956;2023-07-13T01:32:54;2.30;;;0.70;;
39044;SDS011;52192;52.002;5.956;2023-07-13T01:35:20;0.60;;;0.50;;
39044;SDS011;52192;52.002;5.956;2023-07-13T01:37:45;0.47;;;0.43;;
39044;SDS011;52192;52.002;5.956;2023-07-13T01:40:12;1.38;;;0.50;;
39044;SDS011;52192;52.002;5.956;2023-07-13T01:42:37;2.58;;;0.70;;
39044;SDS011;52192;52.002;5.956;2023-07-13T01:45:03;0.57;;;0.50;;
39044;SDS011;52192;52.002;5.956;2023-07-13T01:47:30;1.02;;;0.93;;
39044;SDS011;52192;52.002;5.956;2023-07-13T01:49:57;6.35;;;0.80;;
39044;SDS011;52192;52.002;5.956;2023-07-13T01:52:22;2.22;;;1.48;;
39044;SDS011;52192;52.002;5.956;2023-07-13T01:54:48;1.58;;;0.63;;
39044;SDS011;52192;52.002;5.956;2023-07-13T01:57:14;1.20;;;0.70;;
39044;SDS011;52192;52.002;5.956;2023-07-13T01:59:40;1.23;;;0.40;;
39044;SDS011;52192;52.002;5.956;2023-07-13T02:02:05;1.55;;;0.47;;
39044;SDS011;52192;52.002;5.956;2023-07-13T02:04:31;1.17;;;0.85;;
39044;SDS011;52192;52.002;5.956;2023-07-13T02:06:57;2.10;;;0.90;;
39044;SDS011;52192;52.002;5.956;2023-07-13T02:09:23;3.70;;;0.50;;
39044;SDS011;52192;52.002;5.956;2023-07-13T02:11:48;1.42;;;0.40;;
39044;SDS011;52192;52.002;5.956;2023-07-13T02:14:14;1.77;;;1.00;;
39044;SDS011;52192;52.002;5.956;2023-07-13T02:16:40;1.58;;;0.82;;
39044;SDS011;52192;52.002;5.956;2023-07-13T02:19:07;8.30;;;0.52;;
39044;SDS011;52192;52.002;5.956;2023-07-13T02:21:33;1.02;;;0.70;;
39044;SDS011;52192;52.002;5.956;2023-07-13T02:23:58;1.55;;;1.05;;
39044;SDS011;52192;52.002;5.956;2023-07-13T02:26:25;1.85;;;0.75;;
39044;SDS011;52192;52.002;5.956;2023-07-13T02:28:51;1.00;;;0.68;;
39044;SDS011;52192;52.002;5.956;2023-07-13T02:31:17;2.88;;;1.02;;
39044;SDS011;52192;52.002;5.956;2023-07-13T02:33:43;2.40;;;1.30;;
39044;SDS011;52192;52.002;5.956;2023-07-13T02:36:09;1.98;;;1.30;;
39044;SDS011;52192;52.002;5.956;2023-07-13T02:38:35;4.43;;;1.13;;
39044;SDS011;52192;52.002;5.956;2023-07-13T02:41:05;1.23;;;0.50;;
39044;SDS011;52192;52.002;5.956;2023-07-13T02:43:33;1.08;;;0.70;;
39044;SDS011;52192;52.002;5.956;2023-07-13T02:45:59;1.20;;;1.10;;
39044;SDS011;52192;52.002;5.956;2023-07-13T02:48:29;3.13;;;0.95;;
39044;SDS011;52192;52.002;5.956;2023-07-13T02:50:55;3.42;;;0.88;;
39044;SDS011;52192;52.002;5.956;2023-07-13T02:53:20;0.80;;;0.47;;
39044;SDS011;52192;52.002;5.956;2023-07-13T02:55:46;1.45;;;1.05;;
39044;SDS011;52192;52.002;5.956;2023-07-13T02:58:12;2.55;;;0.88;;
39044;SDS011;52192;52.002;5.956;2023-07-13T03:03:11;1.67;;;1.40;;
39044;SDS011;52192;52.002;5.956;2023-07-13T03:05:40;0.60;;;0.57;;
39044;SDS011;52192;52.002;5.956;2023-07-13T03:08:09;2.60;;;1.08;;
39044;SDS011;52192;52.002;5.956;2023-07-13T03:10:36;1.67;;;1.00;;
39044;SDS011;52192;52.002;5.956;2023-07-13T03:13:02;1.27;;;1.05;;
39044;SDS011;52192;52.002;5.956;2023-07-13T03:15:28;1.02;;;0.80;;
39044;SDS011;52192;52.002;5.956;2023-07-13T03:17:54;2.22;;;0.63;;
39044;SDS011;52192;52.002;5.956;2023-07-13T03:20:19;1.23;;;0.70;;
39044;SDS011;52192;52.002;5.956;2023-07-13T03:22:45;1.00;;;0.65;;
39044;SDS011;52192;52.002;5.956;2023-07-13T03:25:11;0.93;;;0.75;;
39044;SDS011;52192;52.002;5.956;2023-07-13T03:27:37;0.65;;;0.60;;
39044;SDS011;52192;52.002;5.956;2023-07-13T03:30:04;1.77;;;1.00;;
39044;SDS011;52192;52.002;5.956;2023-07-13T03:32:30;3.10;;;0.82;;
39044;SDS011;52192;52.002;5.956;2023-07-13T03:34:56;1.90;;;0.77;;
39044;SDS011;52192;52.002;5.956;2023-07-13T03:37:22;2.33;;;1.08;;
39044;SDS011;52192;52.002;5.956;2023-07-13T03:39:47;3.22;;;1.45;;
39044;SDS011;52192;52.002;5.956;2023-07-13T03:42:13;1.35;;;0.90;;
39044;SDS011;52192;52.002;5.956;2023-07-13T03:44:39;4.07;;;1.48;;
39044;SDS011;52192;52.002;5.956;2023-07-13T03:47:05;1.45;;;1.00;;
39044;SDS011;52192;52.002;5.956;2023-07-13T03:49:33;2.80;;;0.95;;
39044;SDS011;52192;52.002;5.956;2023-07-13T03:51:59;4.95;;;1.92;;
39044;SDS011;52192;52.002;5.956;2023-07-13T03:54:25;1.48;;;0.77;;
39044;SDS011;52192;52.002;5.956;2023-07-13T03:56:51;1.73;;;0.80;;
39044;SDS011;52192;52.002;5.956;2023-07-13T03:59:17;1.98;;;0.88;;
39044;SDS011;52192;52.002;5.956;2023-07-13T04:01:43;1.45;;;0.85;;
39044;SDS011;52192;52.002;5.956;2023-07-13T04:04:10;2.47;;;0.80;;
39044;SDS011;52192;52.002;5.956;2023-07-13T04:06:36;2.03;;;1.10;;
39044;SDS011;52192;52.002;5.956;2023-07-13T04:09:02;3.78;;;1.45;;
39044;SDS011;52192;52.002;5.956;2023-07-13T04:11:32;2.85;;;1.10;;
39044;SDS011;52192;52.002;5.956;2023-07-13T04:13:58;4.60;;;0.60;;
39044;SDS011;52192;52.002;5.956;2023-07-13T04:16:24;2.08;;;0.85;;
39044;SDS011;52192;52.002;5.956;2023-07-13T04:18:50;0.82;;;0.63;;
39044;SDS011;52192;52.002;5.956;2023-07-13T04:21:26;3.33;;;1.15;;
39044;SDS011;52192;52.002;5.956;2023-07-13T04:23:54;5.18;;;1.45;;
39044;SDS011;52192;52.002;5.956;2023-07-13T04:26:20;1.77;;;0.90;;
39044;SDS011;52192;52.002;5.956;2023-07-13T04:28:47;4.28;;;1.63;;
39044;SDS011;52192;52.002;5.956;2023-07-13T04:31:13;2.70;;;1.02;;
39044;SDS011;52192;52.002;5.956;2023-07-13T04:33:39;1.02;;;0.82;;
39044;SDS011;52192;52.002;5.956;2023-07-13T04:36:05;1.88;;;1.08;;
39044;SDS011;52192;52.002;5.956;2023-07-13T04:38:31;2.78;;;1.05;;
39044;SDS011;52192;52.002;5.956;2023-07-13T04:40:59;2.30;;;1.10;;
39044;SDS011;52192;52.002;5.956;2023-07-13T04:43:27;1.63;;;1.02;;
39044;SDS011;52192;52.002;5.956;2023-07-13T04:45:54;4.00;;;1.25;;
39044;SDS011;52192;52.002;5.956;2023-07-13T04:48:20;2.53;;;1.25;;
39044;SDS011;52192;52.002;5.956;2023-07-13T04:50:46;3.08;;;1.02;;
39044;SDS011;52192;52.002;5.956;2023-07-13T04:53:12;5.10;;;1.58;;
39044;SDS011;52192;52.002;5.956;2023-07-13T04:55:38;3.13;;;1.38;;
39044;SDS011;52192;52.002;5.956;2023-07-13T04:58:05;1.65;;;1.20;;
39044;SDS011;52192;52.002;5.956;2023-07-13T05:00:31;6.82;;;1.38;;
39044;SDS011;52192;52.002;5.956;2023-07-13T05:02:57;6.88;;;1.25;;
39044;SDS011;52192;52.002;5.956;2023-07-13T05:05:24;1.38;;;0.95;;
39044;SDS011;52192;52.002;5.956;2023-07-13T05:07:51;1.00;;;0.80;;
39044;SDS011;52192;52.002;5.956;2023-07-13T05:10:17;2.40;;;1.23;;
39044;SDS011;52192;52.002;5.956;2023-07-13T05:12:43;3.15;;;1.50;;
39044;SDS011;52192;52.002;5.956;2023-07-13T05:15:08;1.63;;;1.10;;
39044;SDS011;52192;52.002;5.956;2023-07-13T05:17:34;3.28;;;1.20;;
39044;SDS011;52192;52.002;5.956;2023-07-13T05:20:00;2.75;;;0.93;;
39044;SDS011;52192;52.002;5.956;2023-07-13T05:22:26;5.78;;;1.38;;
39044;SDS011;52192;52.002;5.956;2023-07-13T05:24:52;5.72;;;1.25;;
39044;SDS011;52192;52.002;5.956;2023-07-13T05:27:17;1.77;;;1.23;;
39044;SDS011;52192;52.002;5.956;2023-07-13T05:29:43;2.13;;;1.23;;
39044;SDS011;52192;52.002;5.956;2023-07-13T05:32:09;2.67;;;1.30;;
39044;SDS011;52192;52.002;5.956;2023-07-13T05:34:35;0.73;;;0.60;;
39044;SDS011;52192;52.002;5.956;2023-07-13T05:37:00;5.75;;;1.25;;
39044;SDS011;52192;52.002;5.956;2023-07-13T05:39:26;3.50;;;1.55;;
39044;SDS011;52192;52.002;5.956;2023-07-13T05:41:52;4.35;;;2.45;;
39044;SDS011;52192;52.002;5.956;2023-07-13T05:44:18;2.15;;;1.35;;
39044;SDS011;52192;52.002;5.956;2023-07-13T05:46:44;2.15;;;1.73;;
39044;SDS011;52192;52.002;5.956;2023-07-13T05:49:10;3.95;;;1.33;;
39044;SDS011;52192;52.002;5.956;2023-07-13T05:51:36;3.05;;;1.35;;
39044;SDS011;52192;52.002;5.956;2023-07-13T05:54:02;5.78;;;1.58;;
39044;SDS011;52192;52.002;5.956;2023-07-13T05:56:28;4.25;;;1.92;;
39044;SDS011;52192;52.002;5.956;2023-07-13T05:58:54;4.28;;;1.90;;
39044;SDS011;52192;52.002;5.956;2023-07-13T06:01:19;7.53;;;2.30;;
39044;SDS011;52192;52.002;5.956;2023-07-13T06:03:46;6.97;;;2.45;;
39044;SDS011;52192;52.002;5.956;2023-07-13T06:06:12;4.78;;;1.77;;
39044;SDS011;52192;52.002;5.956;2023-07-13T06:08:38;2.72;;;1.60;;
39044;SDS011;52192;52.002;5.956;2023-07-13T06:11:05;6.43;;;2.20;;
39044;SDS011;52192;52.002;5.956;2023-07-13T06:13:34;6.28;;;2.70;;
39044;SDS011;52192;52.002;5.956;2023-07-13T06:16:00;4.32;;;2.33;;
39044;SDS011;52192;52.002;5.956;2023-07-13T06:18:29;4.93;;;2.28;;
39044;SDS011;52192;52.002;5.956;2023-07-13T06:20:56;7.20;;;2.35;;
39044;SDS011;52192;52.002;5.956;2023-07-13T06:23:22;4.88;;;1.73;;
39044;SDS011;52192;52.002;5.956;2023-07-13T06:25:48;5.68;;;2.58;;
39044;SDS011;52192;52.002;5.956;2023-07-13T06:28:14;2.90;;;1.77;;
39044;SDS011;52192;52.002;5.956;2023-07-13T06:30:40;4.95;;;2.88;;
39044;SDS011;52192;52.002;5.956;2023-07-13T06:33:06;4.82;;;1.90;;
39044;SDS011;52192;52.002;5.956;2023-07-13T06:35:31;4.25;;;2.53;;
39044;SDS011;52192;52.002;5.956;2023-07-13T06:37:57;7.22;;;2.30;;
39044;SDS011;52192;52.002;5.956;2023-07-13T06:40:23;4.78;;;3.15;;
39044;SDS011;52192;52.002;5.956;2023-07-13T06:42:48;4.63;;;1.90;;
39044;SDS011;52192;52.002;5.956;2023-07-13T06:45:14;3.55;;;2.83;;
39044;SDS011;52192;52.002;5.956;2023-07-13T06:47:40;6.40;;;3.08;;
39044;SDS011;52192;52.002;5.956;2023-07-13T06:50:06;3.95;;;2.20;;
39044;SDS011;52192;52.002;5.956;2023-07-13T06:52:32;6.13;;;2.97;;
39044;SDS011;52192;52.002;5.956;2023-07-13T06:54:58;6.32;;;2.42;;
39044;SDS011;52192;52.002;5.956;2023-07-13T06:57:24;10.52;;;3.55;;
39044;SDS011;52192;52.002;5.956;2023-07-13T06:59:49;5.90;;;2.70;;
39044;SDS011;52192;52.002;5.956;2023-07-13T07:02:15;3.30;;;1.85;;
39044;SDS011;52192;52.002;5.956;2023-07-13T07:04:41;6.53;;;2.00;;
39044;SDS011;52192;52.002;5.956;2023-07-13T07:07:06;5.13;;;3.72;;
39044;SDS011;52192;52.002;5.956;2023-07-13T07:09:32;7.07;;;2.55;;
39044;SDS011;52192;52.002;5.956;2023-07-13T07:11:58;4.55;;;1.73;;
39044;SDS011;52192;52.002;5.956;2023-07-13T07:14:23;6.90;;;3.08;;
39044;SDS011;52192;52.002;5.956;2023-07-13T07:16:49;4.45;;;2.65;;
39044;SDS011;52192;52.002;5.956;2023-07-13T07:19:15;5.38;;;2.65;;
39044;SDS011;52192;52.002;5.956;2023-07-13T07:21:41;3.33;;;2.08;;
39044;SDS011;52192;52.002;5.956;2023-07-13T07:24:07;7.50;;;3.53;;
39044;SDS011;52192;52.002;5.956;2023-07-13T07:26:33;5.13;;;2.58;;
39044;SDS011;52192;52.002;5.956;2023-07-13T07:28:59;4.35;;;2.22;;
39044;SDS011;52192;52.002;5.956;2023-07-13T07:31:24;6.72;;;3.03;;
39044;SDS011;52192;52.002;5.956;2023-07-13T07:33:50;4.38;;;2.63;;
39044;SDS011;52192;52.002;5.956;2023-07-13T07:36:16;7.72;;;2.83;;
39044;SDS011;52192;52.002;5.956;2023-07-13T07:38:42;2.90;;;1.90;;
39044;SDS011;52192;52.002;5.956;2023-07-13T07:41:08;6.35;;;3.20;;
39044;SDS011;52192;52.002;5.956;2023-07-13T07:43:34;6.15;;;3.15;;
39044;SDS011;52192;52.002;5.956;2023-07-13T07:46:00;4.65;;;2.38;;
39044;SDS011;52192;52.002;5.956;2023-07-13T07:48:26;7.43;;;3.70;;
39044;SDS011;52192;52.002;5.956;2023-07-13T07:50:51;4.63;;;3.67;;
39044;SDS011;52192;52.002;5.956;2023-07-13T07:53:17;4.68;;;2.47;;
39044;SDS011;52192;52.002;5.956;2023-07-13T07:55:43;5.95;;;3.38;;
39044;SDS011;52192;52.002;5.956;2023-07-13T07:58:09;5.05;;;2.97;;
39044;SDS011;52192;52.002;5.956;2023-07-13T08:00:34;3.00;;;2.70;;
39044;SDS011;52192;52.002;5.956;2023-07-13T08:03:00;4.43;;;3.05;;
39044;SDS011;52192;52.002;5.956;2023-07-13T08:05:26;13.23;;;3.42;;
39044;SDS011;52192;52.002;5.956;2023-07-13T08:07:52;3.47;;;2.63;;
39044;SDS011;52192;52.002;5.956;2023-07-13T08:10:17;7.93;;;2.28;;
39044;SDS011;52192;52.002;5.956;2023-07-13T08:12:43;9.07;;;3.25;;
39044;SDS011;52192;52.002;5.956;2023-07-13T08:15:10;8.82;;;2.42;;
39044;SDS011;52192;52.002;5.956;2023-07-13T08:17:38;5.22;;;2.60;;
39044;SDS011;52192;52.002;5.956;2023-07-13T08:20:04;3.13;;;2.22;;
39044;SDS011;52192;52.002;5.956;2023-07-13T08:22:30;5.38;;;2.78;;
39044;SDS011;52192;52.002;5.956;2023-07-13T08:24:56;5.85;;;2.65;;
39044;SDS011;52192;52.002;5.956;2023-07-13T08:27:22;6.97;;;3.75;;
39044;SDS011;52192;52.002;5.956;2023-07-13T08:29:48;6.45;;;2.17;;
39044;SDS011;52192;52.002;5.956;2023-07-13T08:32:14;4.32;;;3.22;;
39044;SDS011;52192;52.002;5.956;2023-07-13T08:34:40;6.85;;;3.65;;
39044;SDS011;52192;52.002;5.956;2023-07-13T08:37:06;4.15;;;2.75;;
39044;SDS011;52192;52.002;5.956;2023-07-13T08:39:32;5.28;;;2.72;;
39044;SDS011;52192;52.002;5.956;2023-07-13T08:42:04;4.53;;;3.03;;
39044;SDS011;52192;52.002;5.956;2023-07-13T08:47:01;2.92;;;2.40;;
39044;SDS011;52192;52.002;5.956;2023-07-13T08:49:27;5.88;;;3.03;;
39044;SDS011;52192;52.002;5.956;2023-07-13T08:52:05;4.47;;;2.30;;
39044;SDS011;52192;52.002;5.956;2023-07-13T08:54:38;5.40;;;2.47;;
39044;SDS011;52192;52.002;5.956;2023-07-13T08:57:14;6.97;;;2.67;;
39044;SDS011;52192;52.002;5.956;2023-07-13T08:59:43;3.22;;;2.13;;
39044;SDS011;52192;52.002;5.956;2023-07-13T09:02:28;3.10;;;2.25;;
39044;SDS011;52192;52.002;5.956;2023-07-13T09:05:16;3.47;;;1.92;;
39044;SDS011;52192;52.002;5.956;2023-07-13T09:10:41;4.50;;;3.00;;
39044;SDS011;52192;52.002;5.956;2023-07-13T09:13:14;3.10;;;1.65;;
39044;SDS011;52192;52.002;5.956;2023-07-13T09:15:48;4.82;;;3.47;;
39044;SDS011;52192;52.002;5.956;2023-07-13T09:18:16;3.22;;;2.08;;
39044;SDS011;52192;52.002;5.956;2023-07-13T09:21:11;5.07;;;2.50;;
39044;SDS011;52192;52.002;5.956;2023-07-13T09:23:43;3.95;;;2.10;;
39044;SDS011;52192;52.002;5.956;2023-07-13T09:26:14;3.55;;;1.88;;
39044;SDS011;52192;52.002;5.956;2023-07-13T09:28:48;3.92;;;2.08;;
39044;SDS011;52192;52.002;5.956;2023-07-13T09:31:20;6.18;;;1.95;;
39044;SDS011;52192;52.002;5.956;2023-07-13T09:33:51;2.78;;;2.10;;
39044;SDS011;52192;52.002;5.956;2023-07-13T09:36:33;2.65;;;1.35;;
39044;SDS011;52192;52.002;5.956;2023-07-13T09:44:54;2.78;;;2.13;;
39044;SDS011;52192;52.002;5.956;2023-07-13T09:47:26;13.18;;;2.40;;
39044;SDS011;52192;52.002;5.956;2023-07-13T09:50:04;3.08;;;1.40;;
39044;SDS011;52192;52.002;5.956;2023-07-13T09:52:40;1.48;;;1.30;;
39044;SDS011;52192;52.002;5.956;2023-07-13T09:55:14;2.15;;;1.10;;
39044;SDS011;52192;52.002;5.956;2023-07-13T09:57:51;1.70;;;1.48;;
39044;SDS011;52192;52.002;5.956;2023-07-13T10:00:36;2.15;;;1.20;;
39044;SDS011;52192;52.002;5.956;2023-07-13T10:05:33;2.15;;;1.30;;
39044;SDS011;52192;52.002;5.956;2023-07-13T10:08:09;2.70;;;1.88;;
39044;SDS011;52192;52.002;5.956;2023-07-13T10:11:01;3.00;;;1.98;;
39044;SDS011;52192;52.002;5.956;2023-07-13T10:13:48;2.05;;;1.38;;
39044;SDS011;52192;52.002;5.956;2023-07-13T10:16:20;2.53;;;2.00;;
39044;SDS011;52192;52.002;5.956;2023-07-13T10:21:18;2.88;;;2.13;;
39044;SDS011;52192;52.002;5.956;2023-07-13T10:26:18;7.78;;;2.15;;
39044;SDS011;52192;52.002;5.956;2023-07-13T10:28:50;3.30;;;2.03;;
39044;SDS011;52192;52.002;5.956;2023-07-13T10:31:22;4.63;;;1.55;;
39044;SDS011;52192;52.002;5.956;2023-07-13T10:33:48;3.75;;;1.65;;
39044;SDS011;52192;52.002;5.956;2023-07-13T10:36:17;3.65;;;1.67;;
39044;SDS011;52192;52.002;5.956;2023-07-13T10:38:52;2.65;;;1.58;;
39044;SDS011;52192;52.002;5.956;2023-07-13T10:41:19;2.58;;;1.17;;
39044;SDS011;52192;52.002;5.956;2023-07-13T10:43:47;2.50;;;1.77;;
39044;SDS011;52192;52.002;5.956;2023-07-13T10:46:20;4.40;;;1.42;;
39044;SDS011;52192;52.002;5.956;2023-07-13T10:48:55;3.15;;;1.52;;
39044;SDS011;52192;52.002;5.956;2023-07-13T10:51:31;2.47;;;1.60;;
39044;SDS011;52192;52.002;5.956;2023-07-13T10:54:11;4.53;;;1.67;;
39044;SDS011;52192;52.002;5.956;2023-07-13T10:56:44;3.15;;;1.42;;
39044;SDS011;52192;52.002;5.956;2023-07-13T11:01:57;2.92;;;1.15;;
39044;SDS011;52192;52.002;5.956;2023-07-13T11:04:44;3.63;;;1.60;;
39044;SDS011;52192;52.002;5.956;2023-07-13T11:07:21;2.05;;;1.38;;
39044;SDS011;52192;52.002;5.956;2023-07-13T11:09:51;1.55;;;1.27;;
39044;SDS011;52192;52.002;5.956;2023-07-13T11:12:26;1.25;;;1.15;;
39044;SDS011;52192;52.002;5.956;2023-07-13T11:15:12;3.22;;;1.70;;
39044;SDS011;52192;52.002;5.956;2023-07-13T11:20:58;1.80;;;1.48;;
39044;SDS011;52192;52.002;5.956;2023-07-13T11:25:44;3.70;;;1.35;;
39044;SDS011;52192;52.002;5.956;2023-07-13T11:36:18;1.15;;;1.05;;
39044;SDS011;52192;52.002;5.956;2023-07-13T11:39:04;5.78;;;1.17;;
39044;SDS011;52192;52.002;5.956;2023-07-13T11:41:37;1.05;;;0.85;;
39044;SDS011;52192;52.002;5.956;2023-07-13T11:46:43;3.53;;;0.82;;
39044;SDS011;52192;52.002;5.956;2023-07-13T11:49:13;0.70;;;0.70;;
39044;SDS011;52192;52.002;5.956;2023-07-13T11:51:41;2.08;;;0.70;;
39044;SDS011;52192;52.002;5.956;2023-07-13T11:54:28;1.50;;;1.00;;
39044;SDS011;52192;52.002;5.956;2023-07-13T11:57:03;1.98;;;1.10;;
39044;SDS011;52192;52.002;5.956;2023-07-13T11:59:41;2.90;;;0.82;;
39044;SDS011;52192;52.002;5.956;2023-07-13T12:02:14;2.88;;;0.93;;
39044;SDS011;52192;52.002;5.956;2023-07-13T12:07:18;1.40;;;0.80;;
39044;SDS011;52192;52.002;5.956;2023-07-13T12:09:44;0.63;;;0.63;;
39044;SDS011;52192;52.002;5.956;2023-07-13T12:12:11;3.85;;;1.65;;
39044;SDS011;52192;52.002;5.956;2023-07-13T12:14:38;2.10;;;1.02;;
39044;SDS011;52192;52.002;5.956;2023-07-13T12:17:08;0.73;;;0.73;;
39044;SDS011;52192;52.002;5.956;2023-07-13T12:19:53;2.50;;;1.00;;
39044;SDS011;52192;52.002;5.956;2023-07-13T12:22:19;1.33;;;1.08;;
39044;SDS011;52192;52.002;5.956;2023-07-13T12:24:46;2.40;;;1.50;;
39044;SDS011;52192;52.002;5.956;2023-07-13T12:27:22;1.33;;;0.70;;
39044;SDS011;52192;52.002;5.956;2023-07-13T12:30:01;3.20;;;0.90;;
39044;SDS011;52192;52.002;5.956;2023-07-13T12:32:30;3.00;;;1.75;;
39044;SDS011;52192;52.002;5.956;2023-07-13T12:35:04;1.90;;;1.25;;
39044;SDS011;52192;52.002;5.956;2023-07-13T12:37:42;2.00;;;1.20;;
39044;SDS011;52192;52.002;5.956;2023-07-13T12:40:15;2.03;;;1.30;;
39044;SDS011;52192;52.002;5.956;2023-07-13T12:42:45;0.95;;;0.70;;
39044;SDS011;52192;52.002;5.956;2023-07-13T12:47:47;2.05;;;0.93;;
39044;SDS011;52192;52.002;5.956;2023-07-13T12:50:15;1.10;;;0.80;;
39044;SDS011;52192;52.002;5.956;2023-07-13T12:52:51;1.17;;;0.73;;
39044;SDS011;52192;52.002;5.956;2023-07-13T12:55:18;1.52;;;0.90;;
39044;SDS011;52192;52.002;5.956;2023-07-13T12:57:50;1.13;;;1.02;;
39044;SDS011;52192;52.002;5.956;2023-07-13T13:00:27;1.58;;;1.00;;
39044;SDS011;52192;52.002;5.956;2023-07-13T13:03:34;1.58;;;0.82;;
39044;SDS011;52192;52.002;5.956;2023-07-13T13:06:06;1.15;;;0.77;;
39044;SDS011;52192;52.002;5.956;2023-07-13T13:08:45;1.63;;;0.93;;
39044;SDS011;52192;52.002;5.956;2023-07-13T13:11:14;1.35;;;0.88;;
39044;SDS011;52192;52.002;5.956;2023-07-13T13:13:41;0.90;;;0.68;;
39044;SDS011;52192;52.002;5.956;2023-07-13T13:16:21;1.10;;;1.00;;
39044;SDS011;52192;52.002;5.956;2023-07-13T13:21:16;0.93;;;0.85;;
39044;SDS011;52192;52.002;5.956;2023-07-13T13:23:43;3.50;;;0.93;;
39044;SDS011;52192;52.002;5.956;2023-07-13T13:26:12;1.70;;;1.00;;
39044;SDS011;52192;52.002;5.956;2023-07-13T13:28:39;0.77;;;0.70;;
39044;SDS011;52192;52.002;5.956;2023-07-13T13:31:07;2.03;;;1.05;;
39044;SDS011;52192;52.002;5.956;2023-07-13T13:33:37;0.85;;;0.85;;
39044;SDS011;52192;52.002;5.956;2023-07-13T13:36:12;1.20;;;0.90;;
39044;SDS011;52192;52.002;5.956;2023-07-13T13:38:43;3.45;;;0.93;;
39044;SDS011;52192;52.002;5.956;2023-07-13T13:41:09;2.20;;;1.08;;
39044;SDS011;52192;52.002;5.956;2023-07-13T13:43:38;1.25;;;1.17;;
39044;SDS011;52192;52.002;5.956;2023-07-13T13:46:09;1.65;;;1.05;;
39044;SDS011;52192;52.002;5.956;2023-07-13T13:48:43;1.00;;;0.90;;
39044;SDS011;52192;52.002;5.956;2023-07-13T13:51:19;5.25;;;0.98;;
39044;SDS011;52192;52.002;5.956;2023-07-13T13:53:47;1.15;;;1.05;;
39044;SDS011;52192;52.002;5.956;2023-07-13T13:56:16;2.78;;;1.25;;
39044;SDS011;52192;52.002;5.956;2023-07-13T13:58:43;3.22;;;1.23;;
39044;SDS011;52192;52.002;5.956;2023-07-13T14:01:13;2.13;;;1.38;;
39044;SDS011;52192;52.002;5.956;2023-07-13T14:03:43;0.75;;;0.75;;
39044;SDS011;52192;52.002;5.956;2023-07-13T14:06:11;3.05;;;1.40;;
39044;SDS011;52192;52.002;5.956;2023-07-13T14:08:38;1.75;;;0.90;;
39044;SDS011;52192;52.002;5.956;2023-07-13T14:11:04;1.27;;;0.90;;
39044;SDS011;52192;52.002;5.956;2023-07-13T14:13:32;1.13;;;0.90;;
39044;SDS011;52192;52.002;5.956;2023-07-13T14:16:02;0.70;;;0.68;;
39044;SDS011;52192;52.002;5.956;2023-07-13T14:18:30;1.20;;;0.70;;
39044;SDS011;52192;52.002;5.956;2023-07-13T14:20:56;1.10;;;1.00;;
39044;SDS011;52192;52.002;5.956;2023-07-13T14:23:21;4.53;;;0.80;;
39044;SDS011;52192;52.002;5.956;2023-07-13T14:25:47;0.60;;;0.60;;
39044;SDS011;52192;52.002;5.956;2023-07-13T14:30:49;3.65;;;0.80;;
39044;SDS011;52192;52.002;5.956;2023-07-13T14:33:16;1.02;;;0.77;;
39044;SDS011;52192;52.002;5.956;2023-07-13T14:35:41;8.50;;;0.95;;
39044;SDS011;52192;52.002;5.956;2023-07-13T14:38:17;0.80;;;0.80;;
39044;SDS011;52192;52.002;5.956;2023-07-13T14:40:44;1.15;;;1.05;;
39044;SDS011;52192;52.002;5.956;2023-07-13T14:43:12;0.85;;;0.70;;
39044;SDS011;52192;52.002;5.956;2023-07-13T14:45:40;0.70;;;0.70;;
39044;SDS011;52192;52.002;5.956;2023-07-13T14:48:17;2.65;;;0.80;;
39044;SDS011;52192;52.002;5.956;2023-07-13T14:50:49;2.92;;;0.82;;
39044;SDS011;52192;52.002;5.956;2023-07-13T14:53:20;4.13;;;0.80;;
39044;SDS011;52192;52.002;5.956;2023-07-13T14:55:45;0.95;;;0.65;;
39044;SDS011;52192;52.002;5.956;2023-07-13T14:58:11;0.52;;;0.52;;
39044;SDS011;52192;52.002;5.956;2023-07-13T15:00:38;1.52;;;0.80;;
39044;SDS011;52192;52.002;5.956;2023-07-13T15:03:05;0.73;;;0.73;;
39044;SDS011;52192;52.002;5.956;2023-07-13T15:05:44;0.70;;;0.70;;
39044;SDS011;52192;52.002;5.956;2023-07-13T15:08:10;0.75;;;0.75;;
39044;SDS011;52192;52.002;5.956;2023-07-13T15:10:37;0.80;;;0.65;;
39044;SDS011;52192;52.002;5.956;2023-07-13T15:13:18;1.27;;;1.00;;
39044;SDS011;52192;52.002;5.956;2023-07-13T15:15:49;3.60;;;0.75;;
39044;SDS011;52192;52.002;5.956;2023-07-13T15:18:17;1.17;;;0.60;;
39044;SDS011;52192;52.002;5.956;2023-07-13T15:20:46;0.90;;;0.60;;
39044;SDS011;52192;52.002;5.956;2023-07-13T15:23:13;1.42;;;0.65;;
39044;SDS011;52192;52.002;5.956;2023-07-13T15:25:41;1.05;;;0.65;;
39044;SDS011;52192;52.002;5.956;2023-07-13T15:28:08;1.00;;;0.90;;
39044;SDS011;52192;52.002;5.956;2023-07-13T15:30:44;1.20;;;0.95;;
39044;SDS011;52192;52.002;5.956;2023-07-13T15:33:16;1.52;;;0.52;;
39044;SDS011;52192;52.002;5.956;2023-07-13T15:35:54;0.63;;;0.60;;
39044;SDS011;52192;52.002;5.956;2023-07-13T15:38:24;0.70;;;0.70;;
39044;SDS011;52192;52.002;5.956;2023-07-13T15:40:53;0.70;;;0.70;;
39044;SDS011;52192;52.002;5.956;2023-07-13T15:43:20;0.50;;;0.50;;
39044;SDS011;52192;52.002;5.956;2023-07-13T15:45:46;0.50;;;0.50;;
39044;SDS011;52192;52.002;5.956;2023-07-13T15:50:44;0.70;;;0.63;;
39044;SDS011;52192;52.002;5.956;2023-07-13T15:53:24;1.45;;;0.90;;